Volcan De Tamasite — ECFE — position and weather

sailwx.info

Track history (hours):
 
Tides and Currents Weather Stations Pressure Air Temp Water Temp Dewpoint Dewpoint Depression Visibility Wind Speed Wind Dir Waves Ship Positions

Volcan De Tamasite

Last reported at 2016-Feb-11 01:33 UTC. Time now 2016-Feb-11 02:23 UTC.
Position N 28°28' W 016°15'.

Length 141 m; draft 5.3 m.

Type: Passenger vessel. MMSI: 224093000.

Date/timePositionNaut miles runAvg speedWind from/ knotsBaromVisibWave heightAir tempDewpointWater temp
2016-Feb-11 01:33N 28°28' W 016°15'0 0.0
2016-Feb-11 00:31N 28°28' W 016°15'0 0.0
2016-Feb-10 23:33N 28°28' W 016°15'2211.1
2016-Feb-10 21:33N 28°21' W 015°51'2019.7
2016-Feb-10 20:33N 28°14' W 015°30'7 6.8
2016-Feb-10 19:33N 28°10' W 015°24'4 3.9
2016-Feb-10 18:33N 28°08' W 015°20'2020.4
2016-Feb-10 17:33N 28°05' W 014°57'2020.1
2016-Feb-10 16:33N 28°02' W 014°35'1111.1
2016-Feb-10 15:33N 28°03' W 014°22'0 0.0
2016-Feb-10 14:32N 28°03' W 014°22'0 0.0
2016-Feb-10 13:30N 28°03' W 014°22'0 0.0
2016-Feb-10 12:30N 28°03' W 014°22'0 0.0
2016-Feb-10 11:33N 28°03' W 014°22'8 8.1
2016-Feb-10 10:33N 28°02' W 014°31'2019.5
2016-Feb-10 09:33N 28°04' W 014°53'2019.9
2016-Feb-10 08:33N 28°06' W 015°15'9 8.7
2016-Feb-10 07:33N 28°08' W 015°25'0 0.0
2016-Feb-10 06:33N 28°08' W 015°25'0 0.0
2016-Feb-10 05:33N 28°08' W 015°25'0 0.0
2016-Feb-10 04:33N 28°08' W 015°25'0 0.0
2016-Feb-10 03:33N 28°08' W 015°25'0 0.0
2016-Feb-10 02:33N 28°08' W 015°25'0 0.0
2016-Feb-10 01:33N 28°08' W 015°25'0 0.0
2016-Feb-10 00:33N 28°08' W 015°25'0 0.0
2016-Feb-09 23:33N 28°08' W 015°25'0 0.0
2016-Feb-09 22:33N 28°08' W 015°25'0 0.0
2016-Feb-09 21:33N 28°08' W 015°25'0 0.0
2016-Feb-09 20:33N 28°08' W 015°25'0 0.0
2016-Feb-09 19:33N 28°08' W 015°25'9 8.7
2016-Feb-09 18:34N 28°06' W 015°15'2020.2
2016-Feb-09 17:33N 28°04' W 014°52'2019.9
2016-Feb-09 16:33N 28°02' W 014°30'7 7.1
2016-Feb-09 15:32N 28°03' W 014°22'0 0.0
2016-Feb-09 14:33N 28°03' W 014°22'0 0.0
2016-Feb-09 13:31N 28°03' W 014°22'0 0.0
2016-Feb-09 12:33N 28°03' W 014°22'0 0.0
2016-Feb-09 11:33N 28°03' W 014°22'8 8.3
2016-Feb-09 10:33N 28°02' W 014°31'1919.4
2016-Feb-09 09:33N 28°04' W 014°53'2019.8
2016-Feb-09 08:34N 28°06' W 015°15'9 9.0
2016-Feb-09 07:33N 28°08' W 015°25'0 0.0
2016-Feb-09 06:33N 28°08' W 015°25'0 0.0
2016-Feb-09 05:33N 28°08' W 015°25'0 0.0
2016-Feb-09 04:33N 28°08' W 015°25'0 0.0
2016-Feb-09 03:33N 28°08' W 015°25'0 0.0
2016-Feb-09 02:33N 28°08' W 015°25'0 0.0
2016-Feb-09 01:33N 28°08' W 015°25'0 0.0
2016-Feb-09 00:33N 28°08' W 015°25'0 0.0
2016-Feb-08 23:33N 28°08' W 015°25'0 0.0
2016-Feb-08 22:33N 28°08' W 015°25'0 0.0
2016-Feb-08 21:33N 28°08' W 015°25'0 0.0
2016-Feb-08 20:33N 28°08' W 015°25'0 0.0
2016-Feb-08 19:33N 28°08' W 015°25'4 4.4
2016-Feb-08 18:33N 28°07' W 015°20'2020.4
2016-Feb-08 17:33N 28°05' W 014°57'2019.8
2016-Feb-08 16:33N 28°02' W 014°35'1211.7
2016-Feb-08 15:33N 28°03' W 014°22'0 0.0
2016-Feb-08 14:33N 28°03' W 014°22'0 0.0
2016-Feb-08 13:33N 28°03' W 014°22'0 0.0
2016-Feb-08 12:33N 28°03' W 014°22'0 0.0
2016-Feb-08 11:30N 28°03' W 014°22'9 9.1
2016-Feb-08 10:33N 28°02' W 014°31'  
2016-Feb-05 13:06N 28°02' W 014°36'1120.2
2016-Feb-05 12:33N 28°04' W 014°48'2020.3
2016-Feb-05 11:33N 28°07' W 015°11'1111.4
2016-Feb-05 10:33N 28°10' W 015°24'48 1.5
2016-Feb-04 03:14N 28°28' W 016°15'0 0.0
2016-Feb-04 02:09N 28°28' W 016°15'0 0.0
2016-Feb-04 01:19N 28°28' W 016°15'0 0.0
2016-Feb-04 00:32N 28°28' W 016°15'0 0.1
2016-Feb-03 22:33N 28°28' W 016°15'1817.9
2016-Feb-03 21:31N 28°22' W 015°55'1920.3
2016-Feb-03 20:34N 28°15' W 015°34'1110.7
2016-Feb-03 19:33N 28°10' W 015°24'3 3.1
2016-Feb-03 18:33N 28°08' W 015°21'2020.5
2016-Feb-03 17:33N 28°05' W 014°58'2120.5
2016-Feb-03 16:33N 28°02' W 014°35'1111.5
2016-Feb-03 15:33N 28°03' W 014°22'0 0.0
2016-Feb-03 14:33N 28°03' W 014°22'0 0.0
2016-Feb-03 13:33N 28°03' W 014°22'0 0.0
2016-Feb-03 12:33N 28°03' W 014°22'0 0.0
2016-Feb-03 11:27N 28°03' W 014°22'9 9.0
2016-Feb-03 10:27N 28°02' W 014°32'1820.2
2016-Feb-03 09:33N 28°04' W 014°52'2020.3
2016-Feb-03 08:33N 28°06' W 015°15'9 8.7
2016-Feb-03 07:34N 28°08' W 015°25'0 0.0
2016-Feb-03 06:33N 28°08' W 015°25'0 0.0
2016-Feb-03 05:33N 28°08' W 015°25'0 0.0
2016-Feb-03 04:33N 28°08' W 015°25'0 0.0
2016-Feb-03 03:33N 28°08' W 015°25'0 0.0
2016-Feb-03 02:33N 28°08' W 015°25'0 0.0
2016-Feb-03 01:33N 28°08' W 015°25'0 0.0
2016-Feb-03 00:33N 28°08' W 015°25'0 0.0
2016-Feb-02 23:33N 28°08' W 015°25'0 0.0
2016-Feb-02 22:33N 28°08' W 015°25'0 0.0
2016-Feb-02 21:33N 28°08' W 015°25'0 0.0
2016-Feb-02 20:33N 28°08' W 015°25'0 0.0
2016-Feb-02 19:34N 28°08' W 015°25'4 3.7
2016-Feb-02 18:33N 28°07' W 015°21'2020.3
2016-Feb-02 17:33N 28°04' W 014°58'2020.5
2016-Feb-02 16:33N 28°02' W 014°35'1211.7
2016-Feb-02 15:33N 28°03' W 014°22'0 0.0
2016-Feb-02 14:33N 28°03' W 014°22'0 0.0
2016-Feb-02 13:34N 28°03' W 014°22'0 0.0
2016-Feb-02 12:33N 28°03' W 014°22'0 0.0
2016-Feb-02 11:33N 28°03' W 014°22'6 6.2
2016-Feb-02 10:33N 28°02' W 014°29'2020.2
2016-Feb-02 09:34N 28°04' W 014°51'2120.5
2016-Feb-02 08:34N 28°06' W 015°15'9 9.3
2016-Feb-02 07:34N 28°08' W 015°25'0 0.0
2016-Feb-02 06:33N 28°08' W 015°25'0 0.0
2016-Feb-02 05:33N 28°08' W 015°25'0 0.0
2016-Feb-02 04:33N 28°08' W 015°25'0 0.0
2016-Feb-02 03:33N 28°08' W 015°25'0 0.0
2016-Feb-02 02:33N 28°08' W 015°25'0 0.0
2016-Feb-02 01:33N 28°08' W 015°25'0 0.0
2016-Feb-02 00:33N 28°08' W 015°25'0 0.0
2016-Feb-01 23:33N 28°08' W 015°25'0 0.0
2016-Feb-01 22:33N 28°08' W 015°25'0 0.0
2016-Feb-01 21:33N 28°08' W 015°25'0 0.0
2016-Feb-01 20:34N 28°08' W 015°25'0 0.0
2016-Feb-01 19:34N 28°08' W 015°25'5 5.0
2016-Feb-01 18:33N 28°07' W 015°19'2020.2
2016-Feb-01 17:33N 28°05' W 014°57'2020.3
2016-Feb-01 16:33N 28°02' W 014°34'1110.7
2016-Feb-01 15:33N 28°03' W 014°22'0 0.0
2016-Feb-01 14:33N 28°03' W 014°22'0 0.0
2016-Feb-01 13:31N 28°03' W 014°22'0 0.0
2016-Feb-01 12:33N 28°03' W 014°22'0 0.0
2016-Feb-01 11:33N 28°03' W 014°22'7 7.2
2016-Feb-01 10:33N 28°02' W 014°30'2020.4
2016-Feb-01 09:33N 28°04' W 014°53'2020.4
2016-Feb-01 08:34N 28°06' W 015°16'8 8.2
2016-Feb-01 07:33N 28°08' W 015°25'0 0.0
2016-Feb-01 06:33N 28°08' W 015°25'0 0.0
2016-Feb-01 05:33N 28°08' W 015°25'0 0.0
2016-Feb-01 04:33N 28°08' W 015°25'0 0.0
2016-Feb-01 03:33N 28°08' W 015°25'0 0.0
2016-Feb-01 02:33N 28°08' W 015°25'0 0.0
2016-Feb-01 01:33N 28°08' W 015°25'  
Track history (hours):
 
Tides and Currents Weather Stations Pressure Air Temp Water Temp Dewpoint Dewpoint Depression Visibility Wind Speed Wind Dir Waves Ship Positions

Volcan De Tamasite

Last reported at 2016-Feb-11 01:33 UTC. Time now 2016-Feb-11 02:23 UTC.
Position N 28°28' W 016°15'.

Length 141 m; draft 5.3 m.

Type: Passenger vessel. MMSI: 224093000.

Date/timePositionNaut miles runAvg speedWind from/ knotsBaromVisibWave heightAir tempDewpointWater temp
2016-Feb-11 01:33N 28°28' W 016°15'0 0.0
2016-Feb-11 00:31N 28°28' W 016°15'0 0.0
2016-Feb-10 23:33N 28°28' W 016°15'2211.1
2016-Feb-10 21:33N 28°21' W 015°51'2019.7
2016-Feb-10 20:33N 28°14' W 015°30'7 6.8
2016-Feb-10 19:33N 28°10' W 015°24'4 3.9
2016-Feb-10 18:33N 28°08' W 015°20'2020.4
2016-Feb-10 17:33N 28°05' W 014°57'2020.1
2016-Feb-10 16:33N 28°02' W 014°35'1111.1
2016-Feb-10 15:33N 28°03' W 014°22'0 0.0
2016-Feb-10 14:32N 28°03' W 014°22'0 0.0
2016-Feb-10 13:30N 28°03' W 014°22'0 0.0
2016-Feb-10 12:30N 28°03' W 014°22'0 0.0
2016-Feb-10 11:33N 28°03' W 014°22'8 8.1
2016-Feb-10 10:33N 28°02' W 014°31'2019.5
2016-Feb-10 09:33N 28°04' W 014°53'2019.9
2016-Feb-10 08:33N 28°06' W 015°15'9 8.7
2016-Feb-10 07:33N 28°08' W 015°25'0 0.0
2016-Feb-10 06:33N 28°08' W 015°25'0 0.0
2016-Feb-10 05:33N 28°08' W 015°25'0 0.0
2016-Feb-10 04:33N 28°08' W 015°25'0 0.0
2016-Feb-10 03:33N 28°08' W 015°25'0 0.0
2016-Feb-10 02:33N 28°08' W 015°25'0 0.0
2016-Feb-10 01:33N 28°08' W 015°25'0 0.0
2016-Feb-10 00:33N 28°08' W 015°25'0 0.0
2016-Feb-09 23:33N 28°08' W 015°25'0 0.0
2016-Feb-09 22:33N 28°08' W 015°25'0 0.0
2016-Feb-09 21:33N 28°08' W 015°25'0 0.0
2016-Feb-09 20:33N 28°08' W 015°25'0 0.0
2016-Feb-09 19:33N 28°08' W 015°25'9 8.7
2016-Feb-09 18:34N 28°06' W 015°15'2020.2
2016-Feb-09 17:33N 28°04' W 014°52'2019.9
2016-Feb-09 16:33N 28°02' W 014°30'7 7.1
2016-Feb-09 15:32N 28°03' W 014°22'0 0.0
2016-Feb-09 14:33N 28°03' W 014°22'0 0.0
2016-Feb-09 13:31N 28°03' W 014°22'0 0.0
2016-Feb-09 12:33N 28°03' W 014°22'0 0.0
2016-Feb-09 11:33N 28°03' W 014°22'8 8.3
2016-Feb-09 10:33N 28°02' W 014°31'1919.4
2016-Feb-09 09:33N 28°04' W 014°53'2019.8
2016-Feb-09 08:34N 28°06' W 015°15'9 9.0
2016-Feb-09 07:33N 28°08' W 015°25'0 0.0
2016-Feb-09 06:33N 28°08' W 015°25'0 0.0
2016-Feb-09 05:33N 28°08' W 015°25'0 0.0
2016-Feb-09 04:33N 28°08' W 015°25'0 0.0
2016-Feb-09 03:33N 28°08' W 015°25'0 0.0
2016-Feb-09 02:33N 28°08' W 015°25'0 0.0
2016-Feb-09 01:33N 28°08' W 015°25'0 0.0
2016-Feb-09 00:33N 28°08' W 015°25'0 0.0
2016-Feb-08 23:33N 28°08' W 015°25'0 0.0
2016-Feb-08 22:33N 28°08' W 015°25'0 0.0
2016-Feb-08 21:33N 28°08' W 015°25'0 0.0
2016-Feb-08 20:33N 28°08' W 015°25'0 0.0
2016-Feb-08 19:33N 28°08' W 015°25'4 4.4
2016-Feb-08 18:33N 28°07' W 015°20'2020.4
2016-Feb-08 17:33N 28°05' W 014°57'2019.8
2016-Feb-08 16:33N 28°02' W 014°35'1211.7
2016-Feb-08 15:33N 28°03' W 014°22'0 0.0
2016-Feb-08 14:33N 28°03' W 014°22'0 0.0
2016-Feb-08 13:33N 28°03' W 014°22'0 0.0
2016-Feb-08 12:33N 28°03' W 014°22'0 0.0
2016-Feb-08 11:30N 28°03' W 014°22'9 9.1
2016-Feb-08 10:33N 28°02' W 014°31'  
2016-Feb-05 13:06N 28°02' W 014°36'1120.2
2016-Feb-05 12:33N 28°04' W 014°48'2020.3
2016-Feb-05 11:33N 28°07' W 015°11'1111.4
2016-Feb-05 10:33N 28°10' W 015°24'48 1.5
2016-Feb-04 03:14N 28°28' W 016°15'0 0.0
2016-Feb-04 02:09N 28°28' W 016°15'0 0.0
2016-Feb-04 01:19N 28°28' W 016°15'0 0.0
2016-Feb-04 00:32N 28°28' W 016°15'0 0.1
2016-Feb-03 22:33N 28°28' W 016°15'1817.9
2016-Feb-03 21:31N 28°22' W 015°55'1920.3
2016-Feb-03 20:34N 28°15' W 015°34'1110.7
2016-Feb-03 19:33N 28°10' W 015°24'3 3.1
2016-Feb-03 18:33N 28°08' W 015°21'2020.5
2016-Feb-03 17:33N 28°05' W 014°58'2120.5
2016-Feb-03 16:33N 28°02' W 014°35'1111.5
2016-Feb-03 15:33N 28°03' W 014°22'0 0.0
2016-Feb-03 14:33N 28°03' W 014°22'0 0.0
2016-Feb-03 13:33N 28°03' W 014°22'0 0.0
2016-Feb-03 12:33N 28°03' W 014°22'0 0.0
2016-Feb-03 11:27N 28°03' W 014°22'9 9.0
2016-Feb-03 10:27N 28°02' W 014°32'1820.2
2016-Feb-03 09:33N 28°04' W 014°52'2020.3
2016-Feb-03 08:33N 28°06' W 015°15'9 8.7
2016-Feb-03 07:34N 28°08' W 015°25'0 0.0
2016-Feb-03 06:33N 28°08' W 015°25'0 0.0
2016-Feb-03 05:33N 28°08' W 015°25'0 0.0
2016-Feb-03 04:33N 28°08' W 015°25'0 0.0
2016-Feb-03 03:33N 28°08' W 015°25'0 0.0
2016-Feb-03 02:33N 28°08' W 015°25'0 0.0
2016-Feb-03 01:33N 28°08' W 015°25'0 0.0
2016-Feb-03 00:33N 28°08' W 015°25'0 0.0
2016-Feb-02 23:33N 28°08' W 015°25'0 0.0
2016-Feb-02 22:33N 28°08' W 015°25'0 0.0
2016-Feb-02 21:33N 28°08' W 015°25'0 0.0
2016-Feb-02 20:33N 28°08' W 015°25'0 0.0
2016-Feb-02 19:34N 28°08' W 015°25'4 3.7
2016-Feb-02 18:33N 28°07' W 015°21'2020.3
2016-Feb-02 17:33N 28°04' W 014°58'2020.5
2016-Feb-02 16:33N 28°02' W 014°35'1211.7
2016-Feb-02 15:33N 28°03' W 014°22'0 0.0
2016-Feb-02 14:33N 28°03' W 014°22'0 0.0
2016-Feb-02 13:34N 28°03' W 014°22'0 0.0
2016-Feb-02 12:33N 28°03' W 014°22'0 0.0
2016-Feb-02 11:33N 28°03' W 014°22'6 6.2
2016-Feb-02 10:33N 28°02' W 014°29'2020.2
2016-Feb-02 09:34N 28°04' W 014°51'2120.5
2016-Feb-02 08:34N 28°06' W 015°15'9 9.3
2016-Feb-02 07:34N 28°08' W 015°25'0 0.0
2016-Feb-02 06:33N 28°08' W 015°25'0 0.0
2016-Feb-02 05:33N 28°08' W 015°25'0 0.0
2016-Feb-02 04:33N 28°08' W 015°25'0 0.0
2016-Feb-02 03:33N 28°08' W 015°25'0 0.0
2016-Feb-02 02:33N 28°08' W 015°25'0 0.0
2016-Feb-02 01:33N 28°08' W 015°25'0 0.0
2016-Feb-02 00:33N 28°08' W 015°25'0 0.0
2016-Feb-01 23:33N 28°08' W 015°25'0 0.0
2016-Feb-01 22:33N 28°08' W 015°25'0 0.0
2016-Feb-01 21:33N 28°08' W 015°25'0 0.0
2016-Feb-01 20:34N 28°08' W 015°25'0 0.0
2016-Feb-01 19:34N 28°08' W 015°25'5 5.0
2016-Feb-01 18:33N 28°07' W 015°19'2020.2
2016-Feb-01 17:33N 28°05' W 014°57'2020.3
2016-Feb-01 16:33N 28°02' W 014°34'1110.7
2016-Feb-01 15:33N 28°03' W 014°22'0 0.0
2016-Feb-01 14:33N 28°03' W 014°22'0 0.0
2016-Feb-01 13:31N 28°03' W 014°22'0 0.0
2016-Feb-01 12:33N 28°03' W 014°22'0 0.0
2016-Feb-01 11:33N 28°03' W 014°22'7 7.2
2016-Feb-01 10:33N 28°02' W 014°30'2020.4
2016-Feb-01 09:33N 28°04' W 014°53'2020.4
2016-Feb-01 08:34N 28°06' W 015°16'8 8.2
2016-Feb-01 07:33N 28°08' W 015°25'0 0.0
2016-Feb-01 06:33N 28°08' W 015°25'0 0.0
2016-Feb-01 05:33N 28°08' W 015°25'0 0.0
2016-Feb-01 04:33N 28°08' W 015°25'0 0.0
2016-Feb-01 03:33N 28°08' W 015°25'0 0.0
2016-Feb-01 02:33N 28°08' W 015°25'0 0.0
2016-Feb-01 01:33N 28°08' W 015°25'  

Dump ship's entire track history